Time;durP1;ratioP1;P1;durP2;ratioP2;P2;SDS_P1;SDS_P2;PMS_P1;PMS_P2;Temp;Humidity;BMP_temperature;BMP_pressure;BME280_temperature;BME280_humidity;BME280_pressure;Samples;Min_cycle;Max_cycle;Signal;HPM_P1;HPM_P2
2023/09/25 00:01:39;;;;;;;1.90;1.05;;;7.60;99.90;;;;;;5035804;28;20021;-84
2023/09/25 00:04:06;;;;;;;2.70;1.00;;;7.60;99.90;;;;;;5019565;28;20025;-84
2023/09/25 00:06:31;;;;;;;2.03;1.10;;;7.60;99.90;;;;;;5003197;28;20036;-84
2023/09/25 00:08:57;;;;;;;2.53;1.02;;;7.70;99.90;;;;;;5019524;28;20406;-84
2023/09/25 00:11:22;;;;;;;2.72;1.20;;;7.60;99.90;;;;;;5019665;28;20489;-85
2023/09/25 00:13:49;;;;;;;3.30;1.10;;;7.60;99.90;;;;;;5019388;28;20040;-85
2023/09/25 00:16:16;;;;;;;1.90;1.00;;;7.60;99.90;;;;;;5019372;28;20033;-84
2023/09/25 00:18:42;;;;;;;3.67;1.60;;;7.50;99.90;;;;;;5019789;28;20409;-84
2023/09/25 00:21:08;;;;;;;7.43;3.67;;;7.50;99.90;;;;;;5019405;28;20033;-85
2023/09/25 00:23:33;;;;;;;5.88;2.75;;;7.40;99.90;;;;;;5019063;28;20057;-84
2023/09/25 00:26:06;;;;;;;6.18;2.58;;;7.40;99.90;;;;;;5035284;28;20476;-84
2023/09/25 00:28:32;;;;;;;12.70;4.97;;;7.30;99.90;;;;;;5015533;28;20524;-84
2023/09/25 00:30:58;;;;;;;10.65;5.10;;;7.30;99.90;;;;;;5028143;28;20033;-84
2023/09/25 00:33:24;;;;;;;5.85;2.35;;;7.30;99.90;;;;;;5035592;28;20061;-84
2023/09/25 00:35:50;;;;;;;6.45;2.92;;;7.30;99.90;;;;;;5019026;28;20036;-84
2023/09/25 00:38:15;;;;;;;4.40;2.05;;;7.30;99.90;;;;;;5035794;28;20477;-84
2023/09/25 00:40:42;;;;;;;3.67;2.20;;;7.20;99.90;;;;;;5035647;28;20045;-84
2023/09/25 00:43:12;;;;;;;4.68;2.10;;;7.20;99.90;;;;;;5043093;28;20478;-84
2023/09/25 00:45:40;;;;;;;4.82;2.38;;;7.30;99.90;;;;;;5016136;28;20029;-84
2023/09/25 00:48:10;;;;;;;3.22;1.88;;;7.30;99.90;;;;;;5019495;28;20032;-84
2023/09/25 00:50:36;;;;;;;4.78;2.30;;;7.30;99.90;;;;;;5053174;28;20063;-84
2023/09/25 00:53:09;;;;;;;5.20;1.15;;;7.30;99.90;;;;;;5035508;28;20066;-85
2023/09/25 00:55:35;;;;;;;3.13;1.50;;;7.30;99.90;;;;;;5033721;28;20390;-85
2023/09/25 00:58:01;;;;;;;2.80;1.50;;;7.30;99.90;;;;;;5038918;28;20021;-85
2023/09/25 01:00:27;;;;;;;2.33;1.20;;;7.30;99.90;;;;;;5038954;28;20032;-85
2023/09/25 01:02:53;;;;;;;3.47;1.15;;;7.30;99.90;;;;;;5022225;28;20030;-85
2023/09/25 01:05:19;;;;;;;3.45;1.30;;;7.30;99.90;;;;;;5038610;28;20057;-85
2023/09/25 01:07:44;;;;;;;2.25;1.10;;;7.30;99.90;;;;;;5008248;28;20087;-85
2023/09/25 01:10:17;;;;;;;3.72;1.83;;;7.30;99.90;;;;;;5039163;28;20048;-85
2023/09/25 01:12:44;;;;;;;6.22;2.22;;;7.30;99.90;;;;;;5026810;28;20091;-85
2023/09/25 01:15:10;;;;;;;5.68;2.33;;;7.30;99.90;;;;;;5003229;28;20029;-85
2023/09/25 01:17:36;;;;;;;5.28;2.38;;;7.30;99.90;;;;;;5035965;28;20029;-85
2023/09/25 01:20:17;;;;;;;4.95;2.30;;;7.30;99.90;;;;;;5039171;28;20036;-85
2023/09/25 01:22:48;;;;;;;6.03;2.42;;;7.30;99.90;;;;;;5039133;28;20383;-85
2023/09/25 01:25:15;;;;;;;5.00;1.95;;;7.40;99.90;;;;;;5039227;28;20032;-85
2023/09/25 01:27:42;;;;;;;3.22;2.10;;;7.40;99.90;;;;;;5057089;28;20206;-85
2023/09/25 01:30:09;;;;;;;3.40;1.40;;;7.40;99.90;;;;;;5022437;28;20025;-85
2023/09/25 01:32:39;;;;;;;4.28;2.10;;;7.40;99.90;;;;;;5055425;28;20024;-85
2023/09/25 01:35:10;;;;;;;4.43;2.03;;;7.40;99.90;;;;;;5005939;28;20036;-85
2023/09/25 01:37:36;;;;;;;3.38;1.85;;;7.50;99.90;;;;;;5040202;28;20021;-85
2023/09/25 01:40:05;;;;;;;3.05;1.70;;;7.50;99.90;;;;;;5018897;28;20087;-85
2023/09/25 01:42:31;;;;;;;3.92;1.98;;;7.50;99.90;;;;;;5003030;28;20036;-85
2023/09/25 01:44:57;;;;;;;3.88;2.13;;;7.40;99.90;;;;;;4985911;28;20025;-85
2023/09/25 01:47:23;;;;;;;3.25;1.60;;;7.40;99.90;;;;;;5018345;28;20022;-85
2023/09/25 01:49:48;;;;;;;4.70;2.10;;;7.40;99.90;;;;;;5011581;28;20025;-85
2023/09/25 01:52:16;;;;;;;4.20;1.80;;;7.40;99.90;;;;;;5038799;28;20550;-85
2023/09/25 01:54:41;;;;;;;6.80;2.15;;;7.40;99.90;;;;;;5021665;28;20037;-85
2023/09/25 01:57:07;;;;;;;2.88;1.70;;;7.50;99.90;;;;;;5055279;28;20032;-85
2023/09/25 01:59:33;;;;;;;3.03;1.60;;;7.50;99.90;;;;;;5021071;28;20037;-85
2023/09/25 02:01:58;;;;;;;4.00;1.92;;;7.40;99.90;;;;;;5004695;28;20036;-85
2023/09/25 02:04:24;;;;;;;6.68;2.33;;;7.50;99.90;;;;;;5037536;28;20100;-85
2023/09/25 02:06:50;;;;;;;3.28;1.55;;;7.50;99.90;;;;;;5004456;28;20044;-84
2023/09/25 02:09:16;;;;;;;4.00;2.08;;;7.50;99.90;;;;;;5020979;28;20503;-85
2023/09/25 02:11:41;;;;;;;2.80;1.60;;;7.50;99.90;;;;;;5020652;28;20040;-85
2023/09/25 02:14:07;;;;;;;2.45;1.55;;;7.50;99.90;;;;;;5037334;28;20028;-85
2023/09/25 02:16:33;;;;;;;3.05;1.85;;;7.50;99.90;;;;;;5020724;28;20021;-85
2023/09/25 02:18:58;;;;;;;3.25;2.03;;;7.50;99.90;;;;;;5001447;28;20087;-84
2023/09/25 02:21:24;;;;;;;3.67;2.08;;;7.50;99.90;;;;;;5020640;28;20025;-84
2023/09/25 02:23:50;;;;;;;3.78;2.13;;;7.50;99.90;;;;;;5004526;28;20025;-83
2023/09/25 02:26:15;;;;;;;3.05;1.98;;;7.60;99.90;;;;;;5017207;28;20075;-84
2023/09/25 02:28:41;;;;;;;3.28;2.05;;;7.60;99.90;;;;;;5001373;28;20061;-84
2023/09/25 02:31:07;;;;;;;3.22;2.28;;;7.60;99.90;;;;;;5009169;28;20021;-84
2023/09/25 02:33:33;;;;;;;4.40;2.33;;;7.60;99.90;;;;;;5053689;28;20036;-84
2023/09/25 02:36:06;;;;;;;3.97;2.25;;;7.60;99.90;;;;;;5004647;28;20120;-84
2023/09/25 02:38:32;;;;;;;3.75;2.30;;;7.60;99.90;;;;;;5020959;28;20033;-84
2023/09/25 02:40:58;;;;;;;4.07;2.42;;;7.60;99.90;;;;;;5036783;28;20039;-84
2023/09/25 02:43:23;;;;;;;5.18;2.95;;;7.60;99.90;;;;;;5037091;28;20021;-84
2023/09/25 02:45:50;;;;;;;4.65;2.90;;;7.70;99.90;;;;;;5020605;28;20029;-84
2023/09/25 02:48:16;;;;;;;4.85;3.15;;;7.60;99.90;;;;;;5054894;28;20026;-84
2023/09/25 02:50:42;;;;;;;4.00;3.10;;;7.70;99.90;;;;;;5041176;28;20025;-85
2023/09/25 02:53:07;;;;;;;4.55;2.92;;;7.70;99.90;;;;;;5020663;28;20029;-84
2023/09/25 02:55:34;;;;;;;3.00;2.08;;;7.70;99.90;;;;;;5020359;28;20036;-85
2023/09/25 02:57:59;;;;;;;2.83;1.88;;;7.70;99.90;;;;;;5016933;28;20037;-85
2023/09/25 03:00:26;;;;;;;3.15;1.95;;;7.70;99.90;;;;;;5024550;28;20049;-85
2023/09/25 03:02:52;;;;;;;4.20;1.90;;;7.60;99.90;;;;;;4995771;28;20040;-85
2023/09/25 03:05:19;;;;;;;2.95;1.48;;;7.60;99.90;;;;;;5000877;28;20037;-85
2023/09/25 03:07:45;;;;;;;4.40;1.40;;;7.50;99.90;;;;;;5019756;28;20393;-85
2023/09/25 03:10:11;;;;;;;2.65;1.70;;;7.40;99.90;;;;;;5036328;28;20024;-85
2023/09/25 03:12:37;;;;;;;3.53;1.90;;;7.30;99.90;;;;;;5016278;28;20117;-85
2023/09/25 03:15:07;;;;;;;4.15;1.95;;;7.30;99.90;;;;;;5038711;28;20025;-85
2023/09/25 03:17:35;;;;;;;2.85;1.65;;;7.30;99.90;;;;;;5035531;28;20036;-85
2023/09/25 03:20:02;;;;;;;2.58;1.73;;;7.30;99.90;;;;;;5003984;28;20043;-85
2023/09/25 03:22:27;;;;;;;2.25;1.60;;;7.20;99.90;;;;;;5036184;28;20529;-85
2023/09/25 03:24:53;;;;;;;2.80;1.70;;;7.30;99.90;;;;;;5036203;28;20080;-85
2023/09/25 03:27:19;;;;;;;3.50;1.30;;;7.30;99.90;;;;;;5002602;28;20370;-85
2023/09/25 03:29:44;;;;;;;2.30;1.50;;;7.20;99.90;;;;;;5036233;28;20389;-85
2023/09/25 03:32:10;;;;;;;2.22;1.30;;;7.30;99.90;;;;;;5019475;28;20205;-85
2023/09/25 03:34:36;;;;;;;2.85;1.23;;;7.30;99.90;;;;;;5019685;28;20033;-85
2023/09/25 03:37:01;;;;;;;3.70;1.42;;;7.30;99.90;;;;;;5015903;28;20489;-85
2023/09/25 03:39:27;;;;;;;1.60;1.02;;;7.40;99.90;;;;;;4999755;28;20034;-85
2023/09/25 03:41:53;;;;;;;1.92;1.15;;;7.40;99.90;;;;;;5015869;28;20026;-85
2023/09/25 03:44:18;;;;;;;2.17;1.33;;;7.40;99.90;;;;;;4999949;28;20398;-85
2023/09/25 03:46:44;;;;;;;1.88;1.05;;;7.40;99.90;;;;;;5033590;28;20119;-85
2023/09/25 03:49:10;;;;;;;1.90;1.10;;;7.30;99.90;;;;;;5019356;28;20543;-85
2023/09/25 03:51:35;;;;;;;2.05;1.15;;;7.20;99.90;;;;;;5015899;28;20041;-85
2023/09/25 03:54:01;;;;;;;2.47;1.25;;;7.10;99.90;;;;;;5016956;28;20033;-85
2023/09/25 03:56:29;;;;;;;3.58;1.52;;;7.00;99.90;;;;;;5002967;28;20033;-85
2023/09/25 03:58:55;;;;;;;3.10;1.58;;;6.90;99.90;;;;;;5035701;28;20024;-85
2023/09/25 04:01:21;;;;;;;3.40;1.60;;;6.80;99.90;;;;;;5015633;28;20034;-84
2023/09/25 04:03:47;;;;;;;3.35;1.80;;;6.80;99.90;;;;;;5036074;28;20401;-85
2023/09/25 04:06:12;;;;;;;3.22;2.15;;;6.80;99.90;;;;;;5002654;28;20033;-85
2023/09/25 04:08:38;;;;;;;4.90;2.25;;;6.70;99.90;;;;;;5015818;28;20026;-85
2023/09/25 04:11:04;;;;;;;4.20;2.70;;;6.70;99.90;;;;;;4999504;28;20029;-85
2023/09/25 04:13:31;;;;;;;3.67;2.20;;;6.70;99.90;;;;;;5012485;28;20028;-85
2023/09/25 04:15:57;;;;;;;4.90;2.50;;;6.70;99.90;;;;;;5019076;28;20025;-85
2023/09/25 04:18:23;;;;;;;4.43;2.30;;;6.80;99.90;;;;;;5018956;28;20036;-85
2023/09/25 04:20:52;;;;;;;5.50;2.58;;;6.80;99.90;;;;;;5002917;28;20025;-85
2023/09/25 04:23:17;;;;;;;3.88;2.33;;;6.90;99.90;;;;;;5003370;28;20129;-85
2023/09/25 04:25:51;;;;;;;3.55;2.40;;;6.90;99.90;;;;;;5035262;28;20064;-85
2023/09/25 04:28:16;;;;;;;4.80;2.45;;;6.90;99.90;;;;;;5035336;28;20040;-85
2023/09/25 04:30:43;;;;;;;4.07;2.25;;;7.00;99.90;;;;;;5004702;28;20029;-85
2023/09/25 04:33:09;;;;;;;3.13;1.73;;;7.10;99.90;;;;;;5022947;28;20071;-85
2023/09/25 04:35:36;;;;;;;2.63;1.70;;;7.10;99.90;;;;;;5027841;28;20029;-85
2023/09/25 04:38:06;;;;;;;2.28;1.60;;;7.10;99.90;;;;;;5022667;28;20033;-85
2023/09/25 04:40:32;;;;;;;2.90;1.60;;;7.10;99.90;;;;;;5007069;28;20056;-85
2023/09/25 04:43:09;;;;;;;3.03;1.73;;;7.10;99.90;;;;;;5003270;28;20107;-85
2023/09/25 04:45:35;;;;;;;3.05;1.83;;;7.10;99.90;;;;;;5021729;28;20041;-85
2023/09/25 04:48:01;;;;;;;3.65;1.98;;;7.10;99.90;;;;;;5020657;28;20029;-85
2023/09/25 04:50:26;;;;;;;2.95;2.03;;;7.10;99.90;;;;;;5019264;28;20022;-85
2023/09/25 04:52:52;;;;;;;3.47;1.80;;;7.10;99.90;;;;;;5036850;28;20061;-85
2023/09/25 04:55:18;;;;;;;2.90;1.60;;;7.10;99.90;;;;;;5002580;28;20029;-85
2023/09/25 04:57:47;;;;;;;3.60;1.63;;;7.10;99.90;;;;;;5019147;28;20029;-85
2023/09/25 05:00:17;;;;;;;5.25;2.47;;;7.10;99.90;;;;;;5019087;28;20489;-85
2023/09/25 05:02:45;;;;;;;20.00;10.68;;;7.10;99.90;;;;;;5003257;28;20401;-85
2023/09/25 05:05:12;;;;;;;30.80;7.78;;;7.00;99.90;;;;;;5035175;28;20029;-85
2023/09/25 05:07:38;;;;;;;14.07;7.82;;;6.90;99.90;;;;;;5035212;28;20025;-85
2023/09/25 05:10:04;;;;;;;8.05;4.78;;;6.70;99.90;;;;;;5005745;28;20529;-85
2023/09/25 05:12:30;;;;;;;6.18;3.97;;;6.60;99.90;;;;;;5038774;28;20049;-85
2023/09/25 05:14:56;;;;;;;4.47;2.90;;;6.50;99.90;;;;;;5037024;28;20092;-84
2023/09/25 05:17:22;;;;;;;4.78;2.10;;;6.50;99.90;;;;;;5038295;28;20511;-85
2023/09/25 05:19:47;;;;;;;3.30;1.90;;;6.50;99.90;;;;;;5005640;28;20033;-85
2023/09/25 05:22:13;;;;;;;3.28;1.83;;;6.50;99.90;;;;;;5038663;28;20043;-85
2023/09/25 05:24:39;;;;;;;4.28;1.98;;;6.50;99.90;;;;;;5021971;28;20029;-85
2023/09/25 05:27:05;;;;;;;2.53;1.50;;;6.50;99.90;;;;;;5005566;28;20021;-85
2023/09/25 05:29:30;;;;;;;2.17;1.60;;;6.40;99.90;;;;;;5021376;28;20021;-85
2023/09/25 05:31:56;;;;;;;2.15;1.40;;;6.30;99.90;;;;;;5021700;28;20029;-85
2023/09/25 05:34:22;;;;;;;2.58;1.40;;;6.30;99.90;;;;;;5038173;28;20060;-84
2023/09/25 05:36:48;;;;;;;2.92;1.35;;;6.20;99.90;;;;;;5021569;28;20025;-85
2023/09/25 05:39:15;;;;;;;2.38;1.40;;;6.10;99.90;;;;;;5038158;28;20047;-84
2023/09/25 05:41:41;;;;;;;2.63;1.48;;;6.10;99.90;;;;;;5021163;28;20029;-85
2023/09/25 05:44:06;;;;;;;5.20;1.90;;;6.00;99.90;;;;;;5021353;28;20025;-85
2023/09/25 05:46:32;;;;;;;3.53;1.90;;;6.00;99.90;;;;;;5021407;28;20033;-85
2023/09/25 05:48:59;;;;;;;2.95;1.80;;;5.90;99.90;;;;;;5021743;28;20026;-85
2023/09/25 05:51:25;;;;;;;3.80;2.03;;;5.90;99.90;;;;;;5021616;28;20116;-85
2023/09/25 05:53:51;;;;;;;3.28;1.92;;;5.90;99.90;;;;;;5021292;28;20114;-85
2023/09/25 05:56:16;;;;;;;3.97;2.20;;;5.90;99.90;;;;;;5021438;28;20027;-85
2023/09/25 05:58:42;;;;;;;3.22;2.03;;;6.00;99.90;;;;;;5037819;28;20450;-85
2023/09/25 06:01:08;;;;;;;3.50;2.17;;;6.10;99.90;;;;;;5021040;28;20021;-85
2023/09/25 06:03:34;;;;;;;2.97;1.80;;;6.10;99.90;;;;;;5021184;28;20083;-86
2023/09/25 06:05:59;;;;;;;3.55;1.98;;;6.10;99.90;;;;;;5019830;28;20090;-85
2023/09/25 06:08:25;;;;;;;3.58;2.25;;;6.10;99.90;;;;;;5037296;28;20025;-86
2023/09/25 06:11:02;;;;;;;3.20;1.80;;;6.10;99.90;;;;;;5036928;28;20032;-86
2023/09/25 06:13:27;;;;;;;2.80;1.88;;;6.10;99.90;;;;;;5036832;28;20031;-85
2023/09/25 06:15:54;;;;;;;3.53;2.05;;;6.10;99.90;;;;;;5021060;28;20033;-86
2023/09/25 06:18:20;;;;;;;2.25;1.60;;;6.20;99.90;;;;;;5037167;28;20028;-86
2023/09/25 06:20:45;;;;;;;3.70;2.00;;;6.20;99.90;;;;;;5004378;28;20032;-86
2023/09/25 06:23:11;;;;;;;2.72;1.83;;;6.30;99.90;;;;;;5037506;28;20120;-85
2023/09/25 06:25:37;;;;;;;3.13;1.90;;;6.30;99.90;;;;;;5021023;28;20028;-86
2023/09/25 06:28:04;;;;;;;4.88;1.92;;;6.40;99.90;;;;;;5020812;28;20025;-86
2023/09/25 06:30:30;;;;;;;3.25;1.98;;;6.50;99.90;;;;;;5036762;28;20531;-86
2023/09/25 06:32:56;;;;;;;5.10;2.17;;;6.60;99.90;;;;;;5037009;28;20033;-85
2023/09/25 06:35:22;;;;;;;3.40;2.40;;;6.60;99.90;;;;;;5053824;28;20378;-85
2023/09/25 06:37:48;;;;;;;3.38;1.90;;;6.70;99.90;;;;;;5027563;28;20029;-86
2023/09/25 06:40:15;;;;;;;2.97;1.83;;;6.80;99.90;;;;;;5020412;28;20106;-86
2023/09/25 06:42:41;;;;;;;2.97;1.75;;;6.80;99.90;;;;;;5054539;28;20021;-85
2023/09/25 06:45:08;;;;;;;2.60;1.63;;;6.90;99.90;;;;;;5036660;28;20389;-86
2023/09/25 06:47:34;;;;;;;2.78;1.52;;;6.90;99.90;;;;;;5020419;28;20426;-86
2023/09/25 06:50:00;;;;;;;2.53;1.73;;;7.00;99.90;;;;;;5020397;28;20021;-86
2023/09/25 06:52:26;;;;;;;2.70;1.63;;;7.00;99.90;;;;;;5019515;28;20029;-86
2023/09/25 06:54:51;;;;;;;3.45;2.45;;;7.00;99.90;;;;;;5020228;28;20060;-86
2023/09/25 06:57:17;;;;;;;2.67;1.80;;;7.00;99.90;;;;;;5003925;28;20425;-86
2023/09/25 06:59:43;;;;;;;3.00;1.90;;;7.00;99.90;;;;;;5003806;28;20025;-86
2023/09/25 07:02:10;;;;;;;4.07;2.20;;;7.00;99.90;;;;;;5020615;28;20507;-86
2023/09/25 07:04:37;;;;;;;4.53;2.63;;;7.00;99.90;;;;;;5036317;28;20108;-85
2023/09/25 07:07:03;;;;;;;6.60;3.88;;;7.00;99.90;;;;;;5034390;28;20163;-86
2023/09/25 07:09:29;;;;;;;5.78;3.97;;;7.10;99.90;;;;;;5002271;28;20120;-86
2023/09/25 07:11:54;;;;;;;7.35;4.05;;;7.20;99.90;;;;;;5036375;28;20025;-86
2023/09/25 07:14:21;;;;;;;6.13;4.18;;;7.20;99.90;;;;;;5036354;28;20100;-86
2023/09/25 07:16:47;;;;;;;8.55;3.92;;;7.20;99.90;;;;;;5019890;28;20397;-86
2023/09/25 07:19:13;;;;;;;7.20;4.45;;;7.30;99.90;;;;;;5003542;28;20029;-86
2023/09/25 07:21:40;;;;;;;8.02;4.57;;;7.40;99.90;;;;;;5052617;28;20025;-86
2023/09/25 07:24:07;;;;;;;6.97;4.15;;;7.50;99.90;;;;;;5019891;28;20554;-86
2023/09/25 07:26:33;;;;;;;6.18;3.17;;;7.60;99.90;;;;;;5019696;28;20029;-86
2023/09/25 07:28:59;;;;;;;6.22;3.70;;;7.70;99.90;;;;;;5019921;28;20099;-86
2023/09/25 07:31:26;;;;;;;7.40;4.60;;;7.80;99.90;;;;;;5019746;28;20428;-86
2023/09/25 07:33:55;;;;;;;8.35;3.90;;;7.90;99.90;;;;;;5036125;28;20154;-86
2023/09/25 07:36:21;;;;;;;5.50;4.00;;;8.00;99.90;;;;;;5035904;28;20039;-86
2023/09/25 07:38:48;;;;;;;7.07;3.55;;;8.20;99.90;;;;;;5019580;28;20029;-86
2023/09/25 07:41:14;;;;;;;6.15;3.75;;;8.30;99.90;;;;;;5019332;28;20036;-86
2023/09/25 07:43:42;;;;;;;7.32;3.17;;;8.40;99.90;;;;;;5019166;28;20519;-85
2023/09/25 07:46:08;;;;;;;5.28;2.55;;;8.60;99.90;;;;;;5019311;28;20032;-86
2023/09/25 07:48:37;;;;;;;3.50;2.00;;;8.70;99.90;;;;;;5019427;28;20553;-86
2023/09/25 07:51:05;;;;;;;9.38;3.05;;;8.80;99.90;;;;;;5019364;28;20029;-86
2023/09/25 07:53:31;;;;;;;4.20;2.60;;;8.90;99.90;;;;;;5019322;28;20501;-87
2023/09/25 07:55:57;;;;;;;4.07;2.70;;;9.00;99.90;;;;;;5019161;28;20044;-86
2023/09/25 07:58:23;;;;;;;8.57;2.60;;;9.20;99.90;;;;;;5053259;28;20044;-86
2023/09/25 08:00:48;;;;;;;4.53;2.70;;;9.30;99.90;;;;;;5015576;28;20030;-86
2023/09/25 08:03:15;;;;;;;4.70;2.60;;;9.50;99.90;;;;;;5015891;28;20029;-86
2023/09/25 08:05:42;;;;;;;5.18;2.50;;;9.60;99.90;;;;;;5022087;28;20037;-86
2023/09/25 08:08:11;;;;;;;4.63;2.50;;;9.80;99.90;;;;;;5024703;28;20025;-87
2023/09/25 08:10:37;;;;;;;3.53;2.15;;;9.90;99.90;;;;;;5040319;28;20104;-86
2023/09/25 08:13:03;;;;;;;3.60;1.80;;;10.00;99.90;;;;;;5038968;28;20080;-86
2023/09/25 08:15:29;;;;;;;4.70;2.15;;;10.10;99.90;;;;;;5038869;28;20030;-86
2023/09/25 08:17:55;;;;;;;3.33;1.70;;;10.30;99.90;;;;;;5022028;28;20026;-86
2023/09/25 08:20:22;;;;;;;2.75;1.80;;;10.40;99.90;;;;;;5023081;28;20060;-86
2023/09/25 08:22:49;;;;;;;3.15;1.60;;;10.60;99.90;;;;;;5022105;28;20033;-86
2023/09/25 08:25:15;;;;;;;3.22;1.88;;;10.70;99.90;;;;;;5022163;28;20021;-86
2023/09/25 08:27:41;;;;;;;3.30;1.80;;;10.80;99.90;;;;;;5022012;28;20032;-86
2023/09/25 08:30:08;;;;;;;4.13;2.10;;;11.00;99.90;;;;;;5038512;28;20030;-86
2023/09/25 08:32:34;;;;;;;4.22;1.83;;;11.10;99.90;;;;;;5039878;28;20032;-86
2023/09/25 08:35:00;;;;;;;2.80;1.92;;;11.20;99.90;;;;;;5038630;28;20026;-86
2023/09/25 08:37:26;;;;;;;3.92;1.90;;;11.30;99.90;;;;;;5021905;28;20032;-87
2023/09/25 08:39:52;;;;;;;5.50;2.10;;;11.40;99.90;;;;;;5022418;28;20033;-86
2023/09/25 08:42:22;;;;;;;4.88;2.30;;;11.50;99.90;;;;;;5039767;28;20438;-87
2023/09/25 08:44:52;;;;;;;3.90;2.40;;;11.60;99.90;;;;;;5025207;28;20025;-87
2023/09/25 08:47:19;;;;;;;5.32;2.60;;;11.70;99.90;;;;;;5041758;28;20481;-87
2023/09/25 08:49:50;;;;;;;7.47;2.33;;;11.80;99.90;;;;;;5041774;28;20017;-86
2023/09/25 08:52:17;;;;;;;6.70;2.92;;;12.00;99.90;;;;;;5059936;28;20103;-87
2023/09/25 08:54:43;;;;;;;4.50;2.40;;;12.10;99.90;;;;;;5025294;28;20072;-87
2023/09/25 08:57:10;;;;;;;8.23;2.58;;;12.20;99.90;;;;;;5059416;28;20017;-87
2023/09/25 08:59:37;;;;;;;5.63;2.67;;;12.30;99.90;;;;;;5041734;28;20048;-86
2023/09/25 09:02:05;;;;;;;4.07;1.92;;;12.50;99.90;;;;;;5025215;28;20488;-86
2023/09/25 09:04:30;;;;;;;6.40;2.03;;;12.60;99.90;;;;;;5025242;28;20524;-86
2023/09/25 09:06:56;;;;;;;3.80;1.98;;;12.70;99.90;;;;;;5025189;28;20033;-86
2023/09/25 09:09:22;;;;;;;3.80;1.50;;;12.80;99.90;;;;;;5025091;28;20063;-86
2023/09/25 09:11:52;;;;;;;3.65;1.75;;;12.90;99.90;;;;;;5025625;28;20503;-86
2023/09/25 09:14:40;;;;;;;5.15;1.58;;;13.00;99.90;;;;;;5041882;28;20108;-86
2023/09/25 09:17:07;;;;;;;3.70;1.40;;;13.10;99.90;;;;;;5055660;28;20079;-86
2023/09/25 09:19:39;;;;;;;2.72;1.30;;;13.20;99.90;;;;;;5038788;28;20511;-87
2023/09/25 09:22:07;;;;;;;3.90;1.42;;;13.20;99.90;;;;;;5038333;28;20029;-87
2023/09/25 09:24:35;;;;;;;2.03;1.30;;;13.30;99.90;;;;;;5038746;28;20374;-87
2023/09/25 09:27:01;;;;;;;3.17;1.65;;;13.40;99.90;;;;;;5038335;28;20489;-86
2023/09/25 09:29:28;;;;;;;4.18;1.50;;;13.60;99.90;;;;;;5006057;28;20063;-86
2023/09/25 09:31:57;;;;;;;3.05;1.40;;;13.70;99.90;;;;;;5038673;28;20040;-86
2023/09/25 09:34:23;;;;;;;2.83;1.40;;;13.90;99.90;;;;;;5038360;28;20036;-86
2023/09/25 09:36:53;;;;;;;2.63;1.27;;;14.00;99.90;;;;;;5038211;28;20032;-86
2023/09/25 09:39:21;;;;;;;2.60;1.30;;;14.10;99.90;;;;;;5021942;28;20124;-86
2023/09/25 09:41:50;;;;;;;2.85;1.25;;;14.10;99.90;;;;;;5038316;28;20503;-87
2023/09/25 09:44:17;;;;;;;2.78;1.20;;;14.30;99.90;;;;;;5038093;28;20048;-86
2023/09/25 09:46:46;;;;;;;4.32;1.40;;;14.30;99.90;;;;;;5056325;28;20028;-86
2023/09/25 09:49:22;;;;;;;3.90;1.45;;;14.50;99.90;;;;;;5038216;28;20029;-86
2023/09/25 09:54:40;;;;;;;2.42;1.10;;;14.80;99.90;;;;;;5031598;28;20041;-86
2023/09/25 09:57:07;;;;;;;3.30;1.20;;;14.90;99.90;;;;;;5021617;28;20128;-87
2023/09/25 09:59:33;;;;;;;3.25;1.15;;;15.00;99.90;;;;;;5021234;28;20033;-86
2023/09/25 10:02:00;;;;;;;2.83;1.00;;;15.10;99.90;;;;;;5037701;28;20033;-86
2023/09/25 10:04:26;;;;;;;2.67;1.20;;;15.20;99.90;;;;;;5055357;28;20049;-86
2023/09/25 10:06:53;;;;;;;2.03;0.95;;;15.20;99.90;;;;;;5037511;28;20064;-86
2023/09/25 10:09:19;;;;;;;2.22;1.05;;;15.40;99.90;;;;;;5021387;28;20477;-86
2023/09/25 10:11:51;;;;;;;4.38;1.40;;;15.40;99.90;;;;;;5021533;28;20033;-86
2023/09/25 10:14:22;;;;;;;4.85;1.40;;;15.50;99.90;;;;;;5030373;28;20025;-86
2023/09/25 10:17:03;;;;;;;2.30;1.20;;;15.60;99.90;;;;;;5002154;28;20034;-86
2023/09/25 10:19:35;;;;;;;2.58;1.30;;;15.70;99.90;;;;;;5002397;28;20033;-86
2023/09/25 10:22:29;;;;;;;2.75;1.42;;;15.80;99.90;;;;;;5017317;28;20088;-86
2023/09/25 10:25:11;;;;;;;2.03;1.05;;;15.90;99.90;;;;;;5001351;28;20425;-86
2023/09/25 10:27:37;;;;;;;2.10;1.20;;;16.00;99.90;;;;;;5016248;28;20022;-87
2023/09/25 10:30:08;;;;;;;2.42;1.27;;;16.10;99.90;;;;;;5017449;28;20104;-86
2023/09/25 10:32:40;;;;;;;2.53;1.10;;;16.20;99.90;;;;;;5001255;28;20029;-87
2023/09/25 10:35:37;;;;;;;3.13;1.40;;;16.30;99.90;;;;;;5017297;28;20087;-86
2023/09/25 10:38:28;;;;;;;3.25;1.20;;;16.40;99.90;;;;;;5017094;28;20551;-86
2023/09/25 10:40:55;;;;;;;2.53;0.90;;;16.50;99.90;;;;;;5010164;28;20041;-86
2023/09/25 10:43:23;;;;;;;2.20;1.20;;;16.70;99.90;;;;;;5017669;28;20030;-86
2023/09/25 10:45:50;;;;;;;2.80;1.20;;;16.80;99.90;;;;;;5017763;28;20026;-87
2023/09/25 10:48:16;;;;;;;2.28;1.20;;;16.90;99.90;;;;;;5002565;28;20025;-87
2023/09/25 10:50:47;;;;;;;1.85;1.13;;;16.90;99.90;;;;;;5001993;28;20124;-86
2023/09/25 10:53:14;;;;;;;3.65;1.08;;;16.90;99.90;;;;;;5016939;28;20051;-86
2023/09/25 10:55:40;;;;;;;2.03;1.02;;;17.00;99.90;;;;;;5016954;28;20034;-86
2023/09/25 10:58:06;;;;;;;2.42;1.02;;;17.20;99.90;;;;;;5016834;28;20036;-86
2023/09/25 11:00:35;;;;;;;4.30;1.00;;;17.20;99.90;;;;;;5000392;28;20048;-86
2023/09/25 11:03:04;;;;;;;2.92;1.30;;;17.30;99.90;;;;;;5017088;28;20030;-87
2023/09/25 11:05:31;;;;;;;2.55;1.20;;;17.30;99.90;;;;;;5001000;28;20367;-87
2023/09/25 11:07:57;;;;;;;2.35;1.00;;;17.40;99.90;;;;;;5000373;28;20034;-86
2023/09/25 11:10:34;;;;;;;3.22;1.17;;;17.50;99.90;;;;;;5013700;28;20155;-86
2023/09/25 11:13:00;;;;;;;2.95;1.13;;;17.60;99.90;;;;;;5049708;28;20033;-86
2023/09/25 11:15:27;;;;;;;1.98;0.95;;;17.70;99.90;;;;;;5054100;28;20114;-86
2023/09/25 11:17:56;;;;;;;2.92;1.00;;;17.80;99.90;;;;;;5036363;28;20029;-86
2023/09/25 11:20:32;;;;;;;2.42;1.10;;;17.80;99.90;;;;;;5020244;28;20429;-86
2023/09/25 11:23:08;;;;;;;2.70;1.20;;;17.90;99.90;;;;;;5020657;28;20033;-86
2023/09/25 11:25:47;;;;;;;4.40;1.20;;;18.00;99.90;;;;;;5035302;28;20040;-86
2023/09/25 11:28:20;;;;;;;2.20;1.13;;;18.20;99.90;;;;;;5027232;28;20389;-86
2023/09/25 11:30:49;;;;;;;1.60;1.05;;;18.30;99.90;;;;;;5053899;28;20385;-87
2023/09/25 11:33:20;;;;;;;2.72;1.10;;;18.40;99.90;;;;;;5020632;28;20543;-86
2023/09/25 11:35:49;;;;;;;2.03;0.90;;;18.50;99.90;;;;;;5036071;28;20458;-86
2023/09/25 11:38:17;;;;;;;2.70;1.33;;;18.60;99.90;;;;;;5035558;28;20024;-86
2023/09/25 11:40:44;;;;;;;4.18;1.27;;;18.70;99.90;;;;;;5019964;28;20374;-86
2023/09/25 11:43:12;;;;;;;2.67;1.50;;;18.70;99.90;;;;;;5035096;28;20025;-86
2023/09/25 11:45:41;;;;;;;2.38;1.30;;;18.80;99.90;;;;;;5034427;28;20029;-86
2023/09/25 11:48:11;;;;;;;2.65;1.33;;;18.80;99.90;;;;;;5035935;28;20021;-86
2023/09/25 11:50:37;;;;;;;;;;;18.80;99.90;;;;;;5036280;28;20386;-86
2023/09/25 11:53:04;;;;;;;3.92;1.83;;;18.90;99.90;;;;;;5035502;28;19905;-86
2023/09/25 11:55:30;;;;;;;2.60;1.60;;;19.00;99.90;;;;;;5019610;28;20048;-86
2023/09/25 11:57:58;;;;;;;2.90;1.58;;;19.10;99.90;;;;;;5003970;28;20036;-87
2023/09/25 12:00:27;;;;;;;5.18;1.70;;;19.20;99.90;;;;;;5020739;28;20029;-86
2023/09/25 12:02:53;;;;;;;2.72;1.42;;;19.30;99.90;;;;;;5003926;28;20029;-86
2023/09/25 12:05:20;;;;;;;2.83;1.55;;;19.40;99.90;;;;;;5035422;28;20171;-86
2023/09/25 12:07:47;;;;;;;2.67;1.42;;;19.60;99.90;;;;;;5019398;28;20052;-86
2023/09/25 12:10:17;;;;;;;3.35;1.42;;;19.70;99.90;;;;;;5019506;28;20053;-86
2023/09/25 12:12:44;;;;;;;2.33;1.30;;;19.90;99.90;;;;;;5019924;28;20043;-86
2023/09/25 12:15:15;;;;;;;1.92;1.20;;;20.10;99.90;;;;;;5003216;28;20190;-86
2023/09/25 12:17:41;;;;;;;4.80;1.38;;;20.40;99.90;;;;;;5018550;28;20026;-86
2023/09/25 12:20:14;;;;;;;4.13;1.83;;;20.60;99.90;;;;;;5035133;28;20367;-86
2023/09/25 12:22:42;;;;;;;3.05;1.17;;;20.80;99.90;;;;;;5034614;28;20025;-86
2023/09/25 12:25:13;;;;;;;2.78;1.38;;;20.90;99.40;;;;;;5035516;28;20060;-86
2023/09/25 12:27:41;;;;;;;4.05;1.60;;;21.10;99.10;;;;;;5033248;28;20501;-86
2023/09/25 12:30:11;;;;;;;2.60;1.48;;;21.20;99.90;;;;;;5009557;28;20026;-86
2023/09/25 12:32:38;;;;;;;2.13;1.00;;;21.30;98.50;;;;;;5021482;28;20121;-87
2023/09/25 12:35:08;;;;;;;3.20;1.30;;;21.40;99.40;;;;;;5034904;28;20029;-86
2023/09/25 12:37:34;;;;;;;2.37;1.27;;;21.50;99.20;;;;;;5003544;28;20087;-87
2023/09/25 12:40:00;;;;;;;2.72;1.50;;;21.50;96.90;;;;;;5035556;28;20029;-87
2023/09/25 12:42:28;;;;;;;3.15;1.65;;;21.60;99.20;;;;;;5035654;28;20392;-87
2023/09/25 12:44:54;;;;;;;2.80;1.25;;;21.70;98.00;;;;;;5019177;28;20025;-86
2023/09/25 12:47:21;;;;;;;2.60;1.15;;;21.80;97.70;;;;;;5003608;28;20021;-86
2023/09/25 12:49:48;;;;;;;2.72;1.45;;;21.90;97.50;;;;;;5031717;28;20017;-86
2023/09/25 12:52:14;;;;;;;2.88;1.23;;;22.00;97.50;;;;;;5034901;28;20032;-86
2023/09/25 12:54:40;;;;;;;4.25;1.60;;;22.10;97.70;;;;;;5020054;28;20049;-86
2023/09/25 12:57:06;;;;;;;3.70;1.40;;;22.20;98.00;;;;;;5038674;28;20056;-86